Time;durP1;ratioP1;P1;durP2;ratioP2;P2;SDS_P1;SDS_P2;PMS_P1;PMS_P2;Temp;Humidity;BMP_temperature;BMP_pressure;BME280_temperature;BME280_humidity;BME280_pressure;Samples;Min_cycle;Max_cycle;Signal;HPM_P1;HPM_P2
2022/10/09 00:01:00;;;;;;;9.40;5.27;;;;;;;9.71;100.00;98934.34;5034760;28;20232;-71
2022/10/09 00:03:26;;;;;;;8.00;5.37;;;;;;;9.64;100.00;98938.78;5034843;28;20265;-71
2022/10/09 00:05:53;;;;;;;7.83;5.03;;;;;;;9.65;100.00;98933.28;5034797;28;20209;-71
2022/10/09 00:08:19;;;;;;;9.97;5.23;;;;;;;9.56;100.00;98926.44;5034698;28;20206;-71
2022/10/09 00:10:45;;;;;;;11.03;5.30;;;;;;;9.57;100.00;98932.59;5033904;28;20228;-71
2022/10/09 00:13:12;;;;;;;6.63;5.00;;;;;;;9.56;100.00;98929.09;5034045;28;20300;-71
2022/10/09 00:15:41;;;;;;;7.57;5.10;;;;;;;9.54;100.00;98927.66;5034290;28;20309;-71
2022/10/09 00:18:09;;;;;;;10.07;5.80;;;;;;;9.56;100.00;98933.63;5034494;28;20209;-71
2022/10/09 00:20:37;;;;;;;12.67;5.90;;;;;;;9.43;100.00;98928.19;5034260;28;20234;-71
2022/10/09 00:23:04;;;;;;;7.80;5.40;;;;;;;9.45;100.00;98929.63;5034164;28;20206;-71
2022/10/09 00:25:31;;;;;;;7.40;5.07;;;;;;;9.36;100.00;98927.28;5034455;28;20212;-71
2022/10/09 00:27:58;;;;;;;8.43;5.23;;;;;;;9.40;100.00;98920.59;5034327;28;20205;-71
2022/10/09 00:30:24;;;;;;;7.63;5.17;;;;;;;9.36;100.00;98922.81;5034477;28;20222;-71
2022/10/09 00:32:51;;;;;;;8.17;6.00;;;;;;;9.32;100.00;98921.53;5034293;28;20212;-71
2022/10/09 00:35:17;;;;;;;8.80;5.13;;;;;;;9.27;100.00;98925.78;5034271;28;20208;-71
2022/10/09 00:37:44;;;;;;;9.73;4.97;;;;;;;9.28;100.00;98920.28;5034094;28;20573;-71
2022/10/09 00:40:10;;;;;;;6.90;5.03;;;;;;;9.30;100.00;98922.75;5033480;28;20233;-71
2022/10/09 00:42:37;;;;;;;8.30;4.90;;;;;;;9.29;100.00;98916.63;5033781;28;20214;-71
2022/10/09 00:45:04;;;;;;;6.37;5.30;;;;;;;9.26;100.00;98916.19;5034095;28;20278;-71
2022/10/09 00:48:05;;;;;;;8.23;5.37;;;;;;;9.13;100.00;98913.38;5034051;28;20210;-71
2022/10/09 00:50:41;;;;;;;8.67;5.07;;;;;;;9.05;100.00;98906.38;5033546;28;20221;-71
2022/10/09 00:53:12;;;;;;;8.80;4.73;;;;;;;8.99;100.00;98906.31;5032924;28;20197;-71
2022/10/09 00:55:39;;;;;;;9.63;4.93;;;;;;;9.08;100.00;98916.63;5033897;28;20190;-71
2022/10/09 00:58:06;;;;;;;6.30;4.50;;;;;;;9.02;100.00;98904.13;5033895;28;20206;-71
2022/10/09 01:00:32;;;;;;;8.07;5.00;;;;;;;8.98;100.00;98899.38;5033645;28;20241;-71
2022/10/09 01:02:59;;;;;;;7.67;4.87;;;;;;;8.98;100.00;98902.03;5033560;28;20205;-71
2022/10/09 01:05:53;;;;;;;10.10;5.20;;;;;;;8.98;100.00;98902.03;5033805;28;20206;-71
2022/10/09 01:08:27;;;;;;;7.80;5.10;;;;;;;8.99;100.00;98901.84;5003358;28;20209;-71
2022/10/09 01:11:09;;;;;;;6.73;4.67;;;;;;;8.99;100.00;98899.19;5032535;28;20231;-71
2022/10/09 01:13:52;;;;;;;12.50;4.87;;;;;;;8.94;100.00;98896.28;5033405;28;20651;-71
2022/10/09 01:16:18;;;;;;;9.37;5.00;;;;;;;9.01;100.00;98899.00;5033734;28;20205;-71
2022/10/09 01:18:57;;;;;;;8.90;5.70;;;;;;;8.93;100.00;98897.28;5033571;28;20206;-71
2022/10/09 01:21:34;;;;;;;8.60;4.83;;;;;;;8.93;100.00;98885.84;5033555;28;20252;-71
2022/10/09 01:24:38;;;;;;;9.20;5.23;;;;;;;8.97;100.00;98897.72;5033016;28;20190;-71
2022/10/09 01:27:11;;;;;;;10.23;5.53;;;;;;;8.94;100.00;98890.13;5033166;28;20656;-71
2022/10/09 01:29:47;;;;;;;9.60;4.93;;;;;;;8.92;100.00;98881.56;5033454;28;20197;-71
2022/10/09 01:32:18;;;;;;;8.17;5.43;;;;;;;8.84;100.00;98889.63;5033354;28;20189;-71
2022/10/09 01:34:46;;;;;;;10.63;4.93;;;;;;;8.80;100.00;98891.00;5033987;28;20193;-71
2022/10/09 01:37:14;;;;;;;9.20;5.27;;;;;;;8.76;100.00;98884.44;5033280;28;20573;-71
2022/10/09 01:39:44;;;;;;;8.10;5.07;;;;;;;8.63;100.00;98876.34;5032727;28;20807;-71
2022/10/09 01:42:13;;;;;;;9.00;4.93;;;;;;;8.63;100.00;98889.59;5033437;28;20197;-71
2022/10/09 01:44:40;;;;;;;6.77;5.10;;;;;;;8.64;100.00;98878.81;5033388;28;20293;-71
2022/10/09 01:47:07;;;;;;;7.20;5.07;;;;;;;8.61;100.00;98873.91;5033094;28;20206;-71
2022/10/09 01:49:39;;;;;;;7.03;5.10;;;;;;;8.55;100.00;98873.81;5033311;28;20201;-71
2022/10/09 01:52:25;;;;;;;9.30;4.87;;;;;;;8.49;100.00;98862.13;5033358;28;20229;-71
2022/10/09 01:55:15;;;;;;;8.30;5.03;;;;;;;8.51;100.00;98856.66;5032185;28;20285;-71
2022/10/09 01:57:53;;;;;;;9.60;5.17;;;;;;;8.31;100.00;98853.75;5032950;28;20210;-71
2022/10/09 02:00:21;;;;;;;9.90;5.40;;;;;;;8.44;100.00;98858.38;5033070;28;20226;-71
2022/10/09 02:02:49;;;;;;;7.63;4.97;;;;;;;8.47;100.00;98853.53;5031887;28;20202;-71
2022/10/09 02:05:21;;;;;;;6.80;4.27;;;;;;;8.46;100.00;98848.44;5032832;28;20651;-71
2022/10/09 02:07:48;;;;;;;7.90;4.50;;;;;;;8.46;100.00;98846.59;5032855;28;20190;-72
2022/10/09 02:10:17;;;;;;;9.13;4.47;;;;;;;8.49;100.00;98846.22;5032863;28;20218;-71
2022/10/09 02:12:49;;;;;;;6.10;4.50;;;;;;;8.39;100.00;98844.88;5032649;28;20740;-71
2022/10/09 02:15:16;;;;;;;5.53;4.63;;;;;;;8.46;100.00;98838.63;5033097;28;20187;-71
2022/10/09 02:17:47;;;;;;;7.07;4.23;;;;;;;8.37;100.00;98838.94;5033026;28;20206;-71
2022/10/09 02:20:37;;;;;;;9.73;4.70;;;;;;;8.43;100.00;98841.69;5033421;28;20241;-71
2022/10/09 02:23:07;;;;;;;7.03;4.87;;;;;;;8.36;100.00;98831.97;5032716;28;20218;-71
2022/10/09 02:25:34;;;;;;;5.20;3.60;;;;;;;8.31;100.00;98834.38;5032630;28;20584;-71
2022/10/09 02:28:01;;;;;;;9.53;4.80;;;;;;;8.22;100.00;98832.84;5032921;28;20202;-71
2022/10/09 02:30:35;;;;;;;6.03;4.53;;;;;;;8.28;100.00;98832.91;5032564;28;20233;-71
2022/10/09 02:33:01;;;;;;;5.57;4.07;;;;;;;8.25;100.00;98828.00;5031694;28;20193;-71
2022/10/09 02:35:28;;;;;;;9.13;4.53;;;;;;;8.26;100.00;98829.66;5035282;28;20217;-71
2022/10/09 02:37:55;;;;;;;10.87;4.47;;;;;;;8.17;100.00;98825.44;5036459;28;20202;-71
2022/10/09 02:40:21;;;;;;;6.87;4.20;;;;;;;8.14;100.00;98819.69;5036044;28;20238;-71
2022/10/09 02:42:48;;;;;;;6.60;4.20;;;;;;;8.20;100.00;98824.22;5036114;28;20240;-71
2022/10/09 02:45:14;;;;;;;8.43;4.07;;;;;;;8.14;100.00;98824.97;5036282;28;20205;-71
2022/10/09 02:47:40;;;;;;;6.10;4.47;;;;;;;8.02;100.00;98811.38;5036313;28;20212;-72
2022/10/09 02:50:07;;;;;;;7.53;4.23;;;;;;;7.95;100.00;98826.34;5035925;28;20582;-71
2022/10/09 02:52:34;;;;;;;5.57;3.80;;;;;;;7.97;100.00;98818.22;5035830;28;20744;-71
2022/10/09 02:55:00;;;;;;;6.83;4.30;;;;;;;8.02;100.00;98821.16;5035828;28;20213;-71
2022/10/09 02:57:26;;;;;;;7.53;4.00;;;;;;;7.88;100.00;98812.19;5035774;28;20210;-71
2022/10/09 02:59:53;;;;;;;6.40;4.00;;;;;;;7.91;100.00;98817.13;5035560;28;20234;-72
2022/10/09 03:02:19;;;;;;;5.60;4.10;;;;;;;7.91;100.00;98816.31;5035988;28;20210;-71
2022/10/09 03:04:45;;;;;;;6.17;4.03;;;;;;;7.97;100.00;98811.09;5036497;28;20206;-71
2022/10/09 03:07:12;;;;;;;5.97;3.73;;;;;;;7.88;100.00;98817.50;5035453;28;20213;-71
2022/10/09 03:09:38;;;;;;;6.87;3.90;;;;;;;7.85;100.00;98820.53;5036141;28;20212;-71
2022/10/09 03:12:05;;;;;;;7.67;3.80;;;;;;;7.84;100.00;98815.41;5035771;28;20213;-71
2022/10/09 03:14:31;;;;;;;5.60;3.97;;;;;;;7.86;100.00;98813.38;5035742;28;20266;-71
2022/10/09 03:16:58;;;;;;;5.30;3.97;;;;;;;7.80;100.00;98812.31;5035709;28;20208;-71
2022/10/09 03:19:24;;;;;;;4.53;3.87;;;;;;;7.83;100.00;98817.22;5035273;28;20300;-71
2022/10/09 03:21:50;;;;;;;6.40;4.07;;;;;;;7.83;100.00;98808.47;5035649;28;20202;-71
2022/10/09 03:24:17;;;;;;;7.77;4.03;;;;;;;7.78;100.00;98809.00;5035356;28;20206;-71
2022/10/09 03:26:43;;;;;;;6.97;4.17;;;;;;;7.83;100.00;98809.28;5035530;28;20214;-71
2022/10/09 03:29:09;;;;;;;4.53;3.57;;;;;;;7.77;100.00;98812.66;5035406;28;20209;-71
2022/10/09 03:31:36;;;;;;;5.07;3.70;;;;;;;7.80;100.00;98809.66;5035263;28;20226;-71
2022/10/09 03:34:02;;;;;;;5.07;4.10;;;;;;;7.76;100.00;98818.97;5035465;28;20217;-71
2022/10/09 03:36:28;;;;;;;7.57;3.90;;;;;;;7.79;100.00;98820.44;5035178;28;20210;-71
2022/10/09 03:38:55;;;;;;;6.50;3.87;;;;;;;7.69;100.00;98811.94;5035060;28;20214;-71
2022/10/09 03:41:21;;;;;;;5.90;4.03;;;;;;;7.69;100.00;98819.88;5034759;28;20237;-71
2022/10/09 03:43:47;;;;;;;5.30;3.90;;;;;;;7.69;100.00;98812.75;5035086;28;20206;-71
2022/10/09 03:46:14;;;;;;;5.80;3.90;;;;;;;7.76;100.00;98813.69;5034705;28;20214;-71
2022/10/09 03:48:40;;;;;;;5.53;3.93;;;;;;;7.74;100.00;98817.50;5034787;28;20205;-71
2022/10/09 03:51:06;;;;;;;8.37;4.10;;;;;;;7.65;100.00;98813.31;5034668;28;20232;-71
2022/10/09 03:53:33;;;;;;;7.03;3.80;;;;;;;7.67;100.00;98811.28;5034677;28;20677;-71
2022/10/09 03:55:59;;;;;;;5.57;3.87;;;;;;;7.66;100.00;98815.78;5034690;28;20217;-71
2022/10/09 03:58:25;;;;;;;6.17;4.27;;;;;;;7.68;100.00;98815.56;5034685;28;20665;-71
2022/10/09 04:00:53;;;;;;;7.83;4.13;;;;;;;7.68;100.00;98812.94;5034826;28;20226;-71
2022/10/09 04:03:20;;;;;;;5.47;3.77;;;;;;;7.61;100.00;98815.47;5034894;28;20228;-71
2022/10/09 04:05:47;;;;;;;6.13;3.70;;;;;;;7.61;100.00;98810.19;5034782;28;20210;-71
2022/10/09 04:08:13;;;;;;;5.67;3.80;;;;;;;7.62;100.00;98818.97;5034719;28;20206;-71
2022/10/09 04:10:40;;;;;;;6.27;4.00;;;;;;;7.63;100.00;98815.31;5034593;28;20222;-71
2022/10/09 04:13:06;;;;;;;9.13;4.50;;;;;;;7.52;100.00;98821.06;5034653;28;20205;-71
2022/10/09 04:15:34;;;;;;;5.17;3.70;;;;;;;7.61;100.00;98819.97;5034674;28;20206;-71
2022/10/09 04:18:00;;;;;;;8.57;4.17;;;;;;;7.58;100.00;98817.69;5034475;28;20206;-71
2022/10/09 04:20:26;;;;;;;5.43;4.07;;;;;;;7.57;100.00;98810.75;5034442;28;20241;-71
2022/10/09 04:22:53;;;;;;;5.73;4.00;;;;;;;7.65;100.00;98823.91;5034456;28;20217;-71
2022/10/09 04:25:19;;;;;;;6.93;3.87;;;;;;;7.53;100.00;98814.75;5034480;28;20205;-71
2022/10/09 04:27:45;;;;;;;9.00;4.33;;;;;;;7.46;100.00;98808.56;5034193;28;20210;-71
2022/10/09 04:30:12;;;;;;;7.70;4.40;;;;;;;7.53;100.00;98809.47;5033900;28;20226;-71
2022/10/09 04:32:39;;;;;;;5.87;3.47;;;;;;;7.58;100.00;98813.22;5034027;28;20213;-71
2022/10/09 04:35:06;;;;;;;6.70;4.07;;;;;;;7.50;100.00;98813.28;5033997;28;20673;-71
2022/10/09 04:37:33;;;;;;;6.13;3.93;;;;;;;7.54;100.00;98817.22;5034222;28;20264;-71
2022/10/09 04:39:59;;;;;;;4.50;3.77;;;;;;;7.42;100.00;98818.66;5034507;28;20261;-71
2022/10/09 04:42:26;;;;;;;6.33;4.07;;;;;;;7.42;100.00;98807.28;5034134;28;20201;-71
2022/10/09 04:44:52;;;;;;;7.53;4.30;;;;;;;7.51;100.00;98808.84;5033791;28;20206;-71
2022/10/09 04:47:18;;;;;;;5.73;4.10;;;;;;;7.48;100.00;98811.84;5033595;28;20206;-71
2022/10/09 04:49:45;;;;;;;7.40;4.30;;;;;;;7.34;100.00;98810.00;5033553;28;20713;-71
2022/10/09 04:52:11;;;;;;;7.23;3.63;;;;;;;7.36;100.00;98807.97;5034149;28;20575;-70
2022/10/09 04:54:37;;;;;;;6.37;3.97;;;;;;;7.50;100.00;98805.34;5033887;28;20205;-71
2022/10/09 04:57:09;;;;;;;6.83;4.50;;;;;;;7.43;100.00;98809.72;5033399;28;20225;-71
2022/10/09 04:59:35;;;;;;;8.13;4.20;;;;;;;7.44;100.00;98810.53;5033888;28;20255;-71
2022/10/09 05:02:02;;;;;;;7.13;4.10;;;;;;;7.45;100.00;98801.59;5033874;28;20217;-70
2022/10/09 05:04:28;;;;;;;8.03;4.53;;;;;;;7.37;100.00;98796.41;5033561;28;20210;-71
2022/10/09 05:06:55;;;;;;;6.33;3.67;;;;;;;7.41;100.00;98800.31;5033535;28;20592;-71
2022/10/09 05:09:21;;;;;;;8.97;4.37;;;;;;;7.36;100.00;98802.69;5033429;28;20206;-71
2022/10/09 05:11:48;;;;;;;8.13;3.70;;;;;;;7.22;100.00;98812.25;5033457;28;20205;-71
2022/10/09 05:14:14;;;;;;;7.10;3.83;;;;;;;7.17;100.00;98803.22;5033368;28;20673;-71
2022/10/09 05:16:40;;;;;;;7.47;4.00;;;;;;;7.27;100.00;98803.75;5033673;28;20212;-71
2022/10/09 05:19:07;;;;;;;6.80;4.50;;;;;;;7.16;100.00;98812.16;5033674;28;20206;-70
2022/10/09 05:21:35;;;;;;;6.47;4.23;;;;;;;7.21;100.00;98807.13;5033952;28;20233;-70
2022/10/09 05:24:01;;;;;;;6.93;4.00;;;;;;;7.32;100.00;98801.41;5033274;28;20210;-71
2022/10/09 05:26:28;;;;;;;7.23;4.10;;;;;;;7.32;100.00;98801.41;5033599;28;20332;-71
2022/10/09 05:28:55;;;;;;;8.23;4.30;;;;;;;7.33;100.00;98809.16;5033583;28;20304;-70
2022/10/09 05:31:26;;;;;;;6.90;4.60;;;;;;;7.33;100.00;98803.06;5033458;28;20232;-71
2022/10/09 05:33:54;;;;;;;7.27;3.80;;;;;;;7.37;100.00;98804.34;5033608;28;20233;-71
2022/10/09 05:36:20;;;;;;;6.90;3.73;;;;;;;7.32;100.00;98806.69;5033432;28;20210;-71
2022/10/09 05:38:47;;;;;;;6.80;3.87;;;;;;;7.35;100.00;98803.69;5033752;28;20210;-71
2022/10/09 05:41:16;;;;;;;7.50;3.90;;;;;;;7.50;100.00;98799.22;5032914;28;20241;-71
2022/10/09 05:43:44;;;;;;;6.00;3.87;;;;;;;7.33;100.00;98805.72;5032997;28;20665;-71
2022/10/09 05:46:23;;;;;;;5.77;3.83;;;;;;;7.20;100.00;98808.94;5033326;28;20216;-70
2022/10/09 05:48:57;;;;;;;4.43;4.00;;;;;;;7.39;100.00;98808.47;5033366;28;20186;-70
2022/10/09 05:51:32;;;;;;;6.10;4.13;;;;;;;7.33;100.00;98808.34;5033203;28;20228;-70
2022/10/09 05:54:00;;;;;;;5.40;4.07;;;;;;;7.34;100.00;98805.50;5034106;28;20232;-70
2022/10/09 05:56:30;;;;;;;5.90;3.77;;;;;;;7.35;100.00;98807.16;5033324;28;20202;-70
2022/10/09 05:59:06;;;;;;;5.13;3.90;;;;;;;7.31;100.00;98810.34;5033354;28;20560;-70
2022/10/09 06:01:38;;;;;;;7.43;4.17;;;;;;;7.22;100.00;98811.41;5033112;28;20237;-70
2022/10/09 06:04:05;;;;;;;5.57;3.63;;;;;;;7.21;100.00;98804.50;5033283;28;20191;-70
2022/10/09 06:06:33;;;;;;;5.70;3.93;;;;;;;7.22;100.00;98808.78;5033125;28;20260;-70
2022/10/09 06:08:59;;;;;;;6.67;3.97;;;;;;;7.21;100.00;98807.97;5032729;28;20661;-70
2022/10/09 06:11:31;;;;;;;7.13;3.80;;;;;;;7.22;100.00;98808.78;5036837;28;20225;-70
2022/10/09 06:14:02;;;;;;;6.00;3.77;;;;;;;7.32;100.00;98798.75;5036921;28;20190;-70
2022/10/09 06:16:32;;;;;;;4.50;3.90;;;;;;;7.36;100.00;98802.69;5036881;28;20216;-70
2022/10/09 06:18:59;;;;;;;5.57;4.47;;;;;;;7.47;100.00;98804.91;5036890;28;20614;-70
2022/10/09 06:21:26;;;;;;;9.10;4.10;;;;;;;7.53;100.00;98798.88;5036645;28;20234;-70
2022/10/09 06:23:59;;;;;;;6.33;4.23;;;;;;;7.70;100.00;98803.81;5036651;28;20210;-70
2022/10/09 06:26:28;;;;;;;8.13;4.13;;;;;;;7.81;100.00;98798.06;5036409;28;20194;-71
2022/10/09 06:28:54;;;;;;;8.17;4.03;;;;;;;7.85;100.00;98812.59;5036682;28;20305;-70
2022/10/09 06:31:23;;;;;;;5.60;3.80;;;;;;;7.85;100.00;98811.75;5036623;28;20233;-71
2022/10/09 06:33:51;;;;;;;5.50;4.23;;;;;;;7.92;100.00;98808.19;5036616;28;20202;-71
2022/10/09 06:36:26;;;;;;;4.83;4.00;;;;;;;7.92;100.00;98808.19;5036553;28;20262;-70
2022/10/09 06:38:53;;;;;;;6.83;4.50;;;;;;;7.94;100.00;98811.47;5036418;28;20205;-71
2022/10/09 06:41:22;;;;;;;6.20;4.57;;;;;;;8.05;100.00;98813.66;5035806;28;20240;-71
2022/10/09 06:44:15;;;;;;;5.43;3.87;;;;;;;8.02;100.00;98813.22;5036266;28;20549;-71
2022/10/09 06:46:42;;;;;;;8.07;4.30;;;;;;;8.12;100.00;98803.97;5033592;28;20232;-71
2022/10/09 06:49:10;;;;;;;7.60;4.20;;;;;;;8.21;100.00;98810.84;5036314;28;20206;-70
2022/10/09 06:51:37;;;;;;;5.03;3.77;;;;;;;8.29;100.00;98820.50;5035960;28;20218;-70
2022/10/09 06:54:10;;;;;;;6.10;3.93;;;;;;;8.22;100.00;98817.78;5036132;28;20210;-70
2022/10/09 06:56:36;;;;;;;5.23;4.20;;;;;;;8.30;100.00;98816.84;5036555;28;20186;-71
2022/10/09 06:59:04;;;;;;;5.80;4.17;;;;;;;8.37;100.00;98820.41;5036160;28;20209;-70
2022/10/09 07:01:31;;;;;;;6.23;4.23;;;;;;;8.39;100.00;98816.56;5035661;28;20230;-71
2022/10/09 07:04:05;;;;;;;6.23;3.80;;;;;;;8.56;100.00;98820.59;5035701;28;20221;-71
2022/10/09 07:06:33;;;;;;;6.30;4.30;;;;;;;8.60;100.00;98826.38;5035976;28;20278;-70
2022/10/09 07:09:02;;;;;;;8.43;4.37;;;;;;;8.69;100.00;98814.63;5035858;28;20201;-71
2022/10/09 07:11:36;;;;;;;8.60;4.50;;;;;;;8.78;100.00;98824.91;5035653;28;20558;-71
2022/10/09 07:14:05;;;;;;;8.37;4.37;;;;;;;8.82;100.00;98825.38;5035460;28;20204;-71
2022/10/09 07:16:37;;;;;;;6.83;4.70;;;;;;;8.83;100.00;98829.66;5035658;28;20214;-70
2022/10/09 07:19:06;;;;;;;7.93;4.37;;;;;;;8.93;100.00;98820.38;5035356;28;20202;-70
2022/10/09 07:21:34;;;;;;;5.73;4.13;;;;;;;9.02;100.00;98826.38;5034842;28;20237;-70
2022/10/09 07:24:01;;;;;;;7.53;4.17;;;;;;;9.20;100.00;98824.91;5035503;28;20202;-71
2022/10/09 07:26:29;;;;;;;6.20;4.07;;;;;;;9.27;100.00;98822.28;5035154;28;20681;-71
2022/10/09 07:28:56;;;;;;;8.37;3.97;;;;;;;9.28;100.00;98826.59;5035227;28;20569;-70
2022/10/09 07:31:23;;;;;;;5.97;4.47;;;;;;;9.34;100.00;98826.66;5035095;28;20704;-70
2022/10/09 07:33:50;;;;;;;4.30;3.63;;;;;;;9.50;100.00;98822.91;5035508;28;20212;-70
2022/10/09 07:36:17;;;;;;;4.40;3.97;;;;;;;9.57;100.00;98821.09;5035113;28;20212;-70
2022/10/09 07:38:48;;;;;;;7.73;4.17;;;;;;;9.62;100.00;98816.84;5035237;28;20214;-71
2022/10/09 07:41:15;;;;;;;6.23;3.90;;;;;;;9.66;100.00;98819.94;5034675;28;20238;-70
2022/10/09 07:43:42;;;;;;;6.20;3.93;;;;;;;9.78;100.00;98823.69;5035100;28;20209;-70
2022/10/09 07:46:13;;;;;;;6.30;3.47;;;;;;;9.79;100.00;98812.88;5034523;28;20216;-71
2022/10/09 07:48:40;;;;;;;6.10;3.37;;;;;;;9.93;100.00;98816.44;5034856;28;20638;-71
2022/10/09 07:51:09;;;;;;;4.20;3.30;;;;;;;10.00;100.00;98812.78;5035055;28;20221;-71
2022/10/09 07:53:35;;;;;;;6.60;3.80;;;;;;;10.09;100.00;98816.94;5034747;28;20677;-71
2022/10/09 07:56:03;;;;;;;3.53;3.20;;;;;;;10.05;100.00;98815.69;5035057;28;20206;-71
2022/10/09 07:58:29;;;;;;;3.93;3.27;;;;;;;10.17;100.00;98813.28;5034845;28;20205;-70
2022/10/09 08:00:56;;;;;;;5.27;3.33;;;;;;;10.21;100.00;98810.06;5034390;28;20239;-70
2022/10/09 08:03:22;;;;;;;5.53;3.30;;;;;;;10.24;100.00;98819.47;5034782;28;20205;-70
2022/10/09 08:05:56;;;;;;;7.90;3.50;;;;;;;10.29;100.00;98811.72;5034828;28;20212;-70
2022/10/09 08:08:22;;;;;;;5.10;3.93;;;;;;;10.35;100.00;98803.78;5034744;28;20206;-70
2022/10/09 08:10:48;;;;;;;4.43;3.53;;;;;;;10.45;98.23;98808.72;5034700;28;20229;-70
2022/10/09 08:13:15;;;;;;;7.37;4.07;;;;;;;10.51;98.08;98805.25;5034662;28;20206;-70
2022/10/09 08:15:42;;;;;;;8.53;3.90;;;;;;;10.55;98.81;98809.97;5034345;28;20662;-70
2022/10/09 08:18:10;;;;;;;6.47;3.90;;;;;;;10.62;95.36;98812.63;5034278;28;20213;-70
2022/10/09 08:20:37;;;;;;;5.67;3.60;;;;;;;10.84;94.33;98809.63;5034373;28;20233;-69
2022/10/09 08:23:03;;;;;;;6.23;3.90;;;;;;;10.77;94.97;98811.44;5034237;28;20229;-71
2022/10/09 08:25:34;;;;;;;7.30;3.40;;;;;;;10.89;94.33;98804.53;5034313;28;20212;-71
2022/10/09 08:28:00;;;;;;;5.10;3.67;;;;;;;11.05;94.45;98804.13;5034069;28;20606;-71
2022/10/09 08:30:27;;;;;;;6.07;3.93;;;;;;;11.05;93.58;98803.31;5034237;28;20280;-72
2022/10/09 08:32:54;;;;;;;5.60;3.80;;;;;;;11.07;95.24;98800.47;5033372;28;20221;-69
2022/10/09 08:35:21;;;;;;;5.00;3.17;;;;;;;11.04;93.25;98797.16;5034256;28;20206;-68
2022/10/09 08:37:47;;;;;;;4.97;3.00;;;;;;;11.13;93.31;98796.97;5034402;28;20212;-69
2022/10/09 08:40:22;;;;;;;5.37;3.50;;;;;;;11.25;91.43;98795.34;5033668;28;20233;-69
2022/10/09 08:42:56;;;;;;;4.17;3.00;;;;;;;11.61;89.94;98798.41;5033433;28;20237;-69
2022/10/09 08:45:23;;;;;;;5.73;3.17;;;;;;;11.58;88.96;98793.47;5033696;28;20657;-70
2022/10/09 08:47:56;;;;;;;3.67;3.03;;;;;;;11.87;85.68;98795.69;5033605;28;20294;-71
2022/10/09 08:50:30;;;;;;;5.00;2.57;;;;;;;11.90;83.31;98787.28;5033962;28;20232;-71
2022/10/09 08:53:07;;;;;;;3.93;2.73;;;;;;;11.93;82.67;98787.66;5033916;28;20208;-69
2022/10/09 08:55:56;;;;;;;4.67;3.10;;;;;;;12.13;82.24;98783.09;5033739;28;20198;-69
2022/10/09 08:58:29;;;;;;;3.67;2.60;;;;;;;12.21;82.05;98784.72;5033544;28;20182;-70
2022/10/09 09:01:00;;;;;;;4.63;2.73;;;;;;;12.35;81.69;98783.63;5033484;28;20228;-70
2022/10/09 09:03:53;;;;;;;6.43;2.70;;;;;;;12.53;81.28;98786.41;5034245;28;20199;-70
2022/10/09 09:06:45;;;;;;;4.97;2.37;;;;;;;12.63;79.02;98778.75;5033752;28;20190;-70
2022/10/09 09:09:27;;;;;;;6.53;2.60;;;;;;;12.76;83.18;98774.16;5033769;28;20191;-70
2022/10/09 09:11:55;;;;;;;5.17;2.53;;;;;;;13.07;80.28;98774.16;5034042;28;20191;-70
2022/10/09 09:14:43;;;;;;;4.63;2.63;;;;;;;13.13;75.96;98781.31;5033050;28;20221;-70
2022/10/09 09:17:12;;;;;;;4.30;2.67;;;;;;;13.11;78.13;98767.34;5033420;28;20200;-70
2022/10/09 09:19:50;;;;;;;5.13;2.80;;;;;;;13.08;77.54;98767.81;5033479;28;20205;-70
2022/10/09 09:22:17;;;;;;;4.37;2.43;;;;;;;13.13;77.52;98762.63;5031923;28;20698;-70
2022/10/09 09:24:49;;;;;;;3.97;2.40;;;;;;;13.28;76.00;98765.78;5033193;28;20655;-70
2022/10/09 09:27:19;;;;;;;2.93;2.10;;;;;;;13.47;73.64;98761.31;5033349;28;20295;-70
2022/10/09 09:29:55;;;;;;;3.40;2.13;;;;;;;13.52;72.43;98756.13;5033374;28;20255;-71
2022/10/09 09:32:23;;;;;;;4.83;2.23;;;;;;;13.90;72.13;98751.38;5033448;28;20192;-71
2022/10/09 09:34:50;;;;;;;4.40;2.13;;;;;;;13.90;71.81;98756.72;5033100;28;20209;-70
2022/10/09 09:37:17;;;;;;;4.00;2.27;;;;;;;13.94;70.41;98756.06;5033166;28;20561;-71
2022/10/09 09:39:43;;;;;;;2.73;2.07;;;;;;;14.10;68.41;98744.75;5033083;28;20249;-70
2022/10/09 09:42:09;;;;;;;3.73;1.70;;;;;;;14.12;68.34;98744.53;5032867;28;20205;-71
2022/10/09 09:44:40;;;;;;;3.93;1.90;;;;;;;14.36;66.13;98735.59;5035778;28;20201;-70
2022/10/09 09:47:21;;;;;;;3.47;2.00;;;;;;;14.45;65.19;98734.25;5037067;28;20194;-71
2022/10/09 09:49:58;;;;;;;4.50;2.00;;;;;;;14.55;68.80;98734.50;5037217;28;20237;-70
2022/10/09 09:52:28;;;;;;;3.47;2.00;;;;;;;14.60;67.90;98727.44;5037289;28;20190;-71
2022/10/09 09:54:57;;;;;;;2.20;2.00;;;;;;;14.69;66.59;98720.72;5037739;28;20202;-71
2022/10/09 09:57:33;;;;;;;4.53;2.00;;;;;;;14.70;66.02;98721.56;5037167;28;20210;-71
2022/10/09 10:00:15;;;;;;;4.40;2.10;;;;;;;14.71;65.30;98717.81;5036790;28;20228;-69
2022/10/09 10:02:42;;;;;;;4.20;2.33;;;;;;;14.79;65.90;98723.66;5036711;28;20213;-70
2022/10/09 10:05:24;;;;;;;2.80;1.50;;;;;;;14.76;64.46;98715.28;5036612;28;20206;-71
2022/10/09 10:07:51;;;;;;;2.70;1.90;;;;;;;14.75;64.34;98714.44;5037138;28;20206;-70
2022/10/09 10:10:23;;;;;;;2.63;1.83;;;;;;;14.89;63.16;98707.88;5037272;28;20238;-71
2022/10/09 10:12:52;;;;;;;3.73;1.73;;;;;;;15.12;64.80;98699.03;5036505;28;20202;-71
2022/10/09 10:15:30;;;;;;;2.70;1.60;;;;;;;15.11;63.81;98703.56;5036695;28;20205;-72
2022/10/09 10:18:17;;;;;;;1.83;1.70;;;;;;;15.22;62.69;98702.78;5036547;28;20214;-71
2022/10/09 10:21:02;;;;;;;3.33;1.87;;;;;;;15.14;63.08;98688.88;5036587;28;20225;-68
2022/10/09 10:23:39;;;;;;;4.40;1.50;;;;;;;15.22;63.55;98699.25;5036494;28;20221;-70
2022/10/09 10:26:11;;;;;;;3.13;1.70;;;;;;;15.42;63.11;98683.69;5035316;28;20281;-70
2022/10/09 10:28:48;;;;;;;2.93;1.50;;;;;;;15.30;60.65;98685.53;5036000;28;20198;-71
2022/10/09 10:31:33;;;;;;;2.33;1.60;;;;;;;15.42;59.63;98687.19;5019003;28;20229;-70
2022/10/09 10:34:03;;;;;;;3.87;1.67;;;;;;;15.56;60.92;98685.88;5020589;28;20190;-70
2022/10/09 10:36:29;;;;;;;3.60;1.80;;;;;;;15.54;59.62;98677.28;5036337;28;20296;-70
2022/10/09 10:39:08;;;;;;;3.23;1.70;;;;;;;15.78;59.02;98673.47;5036218;28;20232;-70
2022/10/09 10:41:44;;;;;;;2.57;1.70;;;;;;;15.79;59.67;98669.75;5035818;28;20577;-71
2022/10/09 10:44:29;;;;;;;2.77;1.57;;;;;;;15.89;58.18;98659.25;5036142;28;20198;-71
2022/10/09 10:47:03;;;;;;;2.63;1.60;;;;;;;15.91;58.88;98662.50;5035841;28;20186;-70
2022/10/09 10:49:30;;;;;;;2.03;1.40;;;;;;;15.96;56.31;98657.22;5035550;28;20719;-71
2022/10/09 10:52:37;;;;;;;6.60;1.70;;;;;;;16.05;58.45;98655.78;5036089;28;20202;-71
2022/10/09 10:55:21;;;;;;;3.43;2.10;;;;;;;16.06;57.48;98662.00;5034017;28;20190;-69
2022/10/09 10:58:17;;;;;;;1.80;1.50;;;;;;;15.86;58.08;98659.72;5036148;28;20255;-71
2022/10/09 11:00:53;;;;;;;3.47;1.60;;;;;;;16.03;57.97;98657.91;5035946;28;20230;-71
2022/10/09 11:03:42;;;;;;;1.87;1.53;;;;;;;16.27;60.16;98650.56;5034672;28;20216;-69
2022/10/09 11:06:36;;;;;;;5.23;1.80;;;;;;;16.29;58.12;98649.25;5035751;28;20190;-71
2022/10/09 11:09:12;;;;;;;3.07;2.27;;;;;;;16.18;56.70;98652.84;5034484;28;20190;-71
2022/10/09 11:12:07;;;;;;;4.90;1.77;;;;;;;16.19;58.37;98640.25;5035651;28;20229;-71
2022/10/09 11:15:01;;;;;;;2.00;1.60;;;;;;;16.30;56.56;98632.13;5035570;28;20217;-71
2022/10/09 11:17:50;;;;;;;1.57;1.40;;;;;;;16.30;54.71;98636.69;5034619;28;20214;-71
2022/10/09 11:20:35;;;;;;;2.37;1.30;;;;;;;16.39;53.86;98633.38;5035430;28;20233;-71
2022/10/09 11:23:05;;;;;;;1.20;1.10;;;;;;;16.42;54.13;98629.41;5035449;28;20592;-71
2022/10/09 11:25:50;;;;;;;2.03;1.27;;;;;;;16.42;54.52;98621.38;5035162;28;20206;-69
2022/10/09 11:28:30;;;;;;;4.13;1.50;;;;;;;16.36;54.08;98620.44;5035183;28;20202;-71
2022/10/09 11:31:10;;;;;;;3.53;1.40;;;;;;;16.27;54.32;98613.81;5035273;28;20248;-71
2022/10/09 11:33:45;;;;;;;3.80;1.40;;;;;;;16.24;54.31;98616.19;5035066;28;20601;-69
2022/10/09 11:36:23;;;;;;;3.00;1.10;;;;;;;16.35;54.50;98605.38;5033439;28;20197;-69
2022/10/09 11:38:55;;;;;;;3.73;1.43;;;;;;;16.35;52.93;98604.56;5035142;28;20538;-71
2022/10/09 11:41:22;;;;;;;4.43;1.60;;;;;;;16.53;53.25;98591.78;5034594;28;20253;-71
2022/10/09 11:43:54;;;;;;;3.03;1.30;;;;;;;16.54;52.77;98600.63;5034199;28;20226;-71
2022/10/09 11:46:33;;;;;;;2.87;1.20;;;;;;;16.50;53.49;98597.63;5034993;28;20209;-71
2022/10/09 11:49:09;;;;;;;3.50;1.23;;;;;;;16.47;53.40;98595.41;5034792;28;20194;-71
2022/10/09 11:51:35;;;;;;;2.03;1.10;;;;;;;16.46;52.71;98591.09;5035020;28;20584;-71